Ramore, Canada
Current Conditions -  °F | °C
As of 6:00 PM on Monday 20 Oct 2014 (Local Time) from CYTS Reporting Station
Light Rain Light Rain  
Wind Chill: 31°   Ceiling: 800
Heat Index: 37°   Visibility: 12mi
Dew Point: 37°   Wind: 8mph
Humidity: 100%   Direction: 20°NNE
Pressure: 29.88"   Gusts: NA
Location:  48.42°N, 80.32°W
Report Text: CYTS 202200Z 02007KT 12SM -RA FEW005 BKN008 OVC015 03/03 A2988 RMK SF1SF4SC3 SLP133
Loading
Personal Weather Stations






























Interactive Weather Map New forecast layout! Learn more

10-Day Weather Forecast

Advertisements
Track Severe Weather on mobile